Pocasset, Oklahoma
Current Conditions -  °F | °C
As of 10:15 PM on Sunday 21 Dec 2014 (Local Time) from KCHK Reporting Station
Clear Clear  
Wind Chill: 42°   Ceiling: Unl
Heat Index: 48°   Visibility: 7mi
Dew Point: 46°   Wind: 15mph
Humidity: 93%   Direction: 150°SSE
Pressure: 29.65"   Gusts: 23mph
Location:  35.19°N, 97.95°W
Report Text: KCHK 220415Z AUTO 15013G20KT 7SM CLR 09/08 A2965 RMK AO2
Loading
Personal Weather Stations






























Interactive Weather Map New forecast layout! Learn more

10-Day Weather Forecast

Advertisements
Track Severe Weather on mobile